sensor_id;sensor_type;location;lat;lon;timestamp;temperature;humidity
1021;DHT22;499;42.648;23.270;2023-04-03T00:02:03;7.20;32.40
1021;DHT22;499;42.648;23.270;2023-04-03T00:04:30;7.10;32.30
1021;DHT22;499;42.648;23.270;2023-04-03T00:06:57;7.10;32.90
1021;DHT22;499;42.648;23.270;2023-04-03T00:09:25;7.20;32.90
1021;DHT22;499;42.648;23.270;2023-04-03T00:11:52;7.10;32.90
1021;DHT22;499;42.648;23.270;2023-04-03T00:14:20;7.10;33.00
1021;DHT22;499;42.648;23.270;2023-04-03T00:16:47;7.10;33.20
1021;DHT22;499;42.648;23.270;2023-04-03T00:19:13;7.00;33.60
1021;DHT22;499;42.648;23.270;2023-04-03T00:21:40;7.00;34.30
1021;DHT22;499;42.648;23.270;2023-04-03T00:24:07;6.90;34.20
1021;DHT22;499;42.648;23.270;2023-04-03T00:26:36;6.90;34.20
1021;DHT22;499;42.648;23.270;2023-04-03T00:29:03;7.00;34.30
1021;DHT22;499;42.648;23.270;2023-04-03T00:31:30;6.90;34.20
1021;DHT22;499;42.648;23.270;2023-04-03T00:33:58;6.80;34.10
1021;DHT22;499;42.648;23.270;2023-04-03T00:36:25;6.80;34.70
1021;DHT22;499;42.648;23.270;2023-04-03T00:38:52;6.80;34.80
1021;DHT22;499;42.648;23.270;2023-04-03T00:41:19;6.80;35.10
1021;DHT22;499;42.648;23.270;2023-04-03T00:43:48;6.80;34.70
1021;DHT22;499;42.648;23.270;2023-04-03T00:46:15;6.90;34.90
1021;DHT22;499;42.648;23.270;2023-04-03T00:48:43;7.00;34.30
1021;DHT22;499;42.648;23.270;2023-04-03T00:51:13;6.90;34.20
1021;DHT22;499;42.648;23.270;2023-04-03T00:53:44;6.90;34.20
1021;DHT22;499;42.648;23.270;2023-04-03T00:56:15;6.80;34.90
1021;DHT22;499;42.648;23.270;2023-04-03T00:58:47;6.80;35.10
1021;DHT22;499;42.648;23.270;2023-04-03T01:01:20;6.80;35.80
1021;DHT22;499;42.648;23.270;2023-04-03T01:03:48;6.80;36.50
1021;DHT22;499;42.648;23.270;2023-04-03T01:06:17;6.70;36.20
1021;DHT22;499;42.648;23.270;2023-04-03T01:08:48;6.70;37.00
1021;DHT22;499;42.648;23.270;2023-04-03T01:11:16;6.80;36.50
1021;DHT22;499;42.648;23.270;2023-04-03T01:13:43;6.70;36.20
1021;DHT22;499;42.648;23.270;2023-04-03T01:16:10;6.70;36.90
1021;DHT22;499;42.648;23.270;2023-04-03T01:18:39;6.70;37.30
1021;DHT22;499;42.648;23.270;2023-04-03T01:21:30;6.70;37.10
1021;DHT22;499;42.648;23.270;2023-04-03T01:24:11;6.70;37.60
1021;DHT22;499;42.648;23.270;2023-04-03T01:26:40;6.70;36.70
1021;DHT22;499;42.648;23.270;2023-04-03T01:29:07;6.70;37.00
1021;DHT22;499;42.648;23.270;2023-04-03T01:31:56;6.70;36.50
1021;DHT22;499;42.648;23.270;2023-04-03T01:34:25;6.70;36.40
1021;DHT22;499;42.648;23.270;2023-04-03T01:36:52;6.70;36.30
1021;DHT22;499;42.648;23.270;2023-04-03T01:39:20;6.70;36.70
1021;DHT22;499;42.648;23.270;2023-04-03T01:41:47;6.70;36.20
1021;DHT22;499;42.648;23.270;2023-04-03T01:44:14;6.60;36.30
1021;DHT22;499;42.648;23.270;2023-04-03T01:46:42;6.60;36.20
1021;DHT22;499;42.648;23.270;2023-04-03T01:49:10;6.60;37.20
1021;DHT22;499;42.648;23.270;2023-04-03T01:51:37;6.60;36.40
1021;DHT22;499;42.648;23.270;2023-04-03T01:54:04;6.40;37.20
1021;DHT22;499;42.648;23.270;2023-04-03T01:56:31;6.40;37.80
1021;DHT22;499;42.648;23.270;2023-04-03T01:58:58;6.40;38.10
1021;DHT22;499;42.648;23.270;2023-04-03T02:01:25;6.40;38.50
1021;DHT22;499;42.648;23.270;2023-04-03T02:03:52;6.40;38.50
1021;DHT22;499;42.648;23.270;2023-04-03T02:06:21;6.40;38.50
1021;DHT22;499;42.648;23.270;2023-04-03T02:08:47;6.40;38.50
1021;DHT22;499;42.648;23.270;2023-04-03T02:11:14;6.30;38.40
1021;DHT22;499;42.648;23.270;2023-04-03T02:13:41;6.30;38.40
1021;DHT22;499;42.648;23.270;2023-04-03T02:16:10;6.20;38.30
1021;DHT22;499;42.648;23.270;2023-04-03T02:18:38;6.30;39.00
1021;DHT22;499;42.648;23.270;2023-04-03T02:21:05;6.20;39.20
1021;DHT22;499;42.648;23.270;2023-04-03T02:23:33;6.10;40.10
1021;DHT22;499;42.648;23.270;2023-04-03T02:26:06;6.20;41.70
1021;DHT22;499;42.648;23.270;2023-04-03T02:28:34;6.20;40.70
1021;DHT22;499;42.648;23.270;2023-04-03T02:31:01;6.20;40.30
1021;DHT22;499;42.648;23.270;2023-04-03T02:33:28;6.10;40.80
1021;DHT22;499;42.648;23.270;2023-04-03T02:35:56;6.10;41.40
1021;DHT22;499;42.648;23.270;2023-04-03T02:38:24;6.10;40.60
1021;DHT22;499;42.648;23.270;2023-04-03T02:40:52;6.00;41.60
1021;DHT22;499;42.648;23.270;2023-04-03T02:43:19;6.00;42.20
1021;DHT22;499;42.648;23.270;2023-04-03T02:45:46;6.00;42.80
1021;DHT22;499;42.648;23.270;2023-04-03T02:48:13;5.90;42.80
1021;DHT22;499;42.648;23.270;2023-04-03T02:50:42;5.80;44.50
1021;DHT22;499;42.648;23.270;2023-04-03T02:53:09;5.90;45.20
1021;DHT22;499;42.648;23.270;2023-04-03T02:55:36;5.80;45.90
1021;DHT22;499;42.648;23.270;2023-04-03T02:58:04;5.80;47.20
1021;DHT22;499;42.648;23.270;2023-04-03T03:00:32;5.80;46.80
1021;DHT22;499;42.648;23.270;2023-04-03T03:02:59;5.80;45.00
1021;DHT22;499;42.648;23.270;2023-04-03T03:05:26;5.80;44.80
1021;DHT22;499;42.648;23.270;2023-04-03T03:07:54;5.80;44.80
1021;DHT22;499;42.648;23.270;2023-04-03T03:10:21;5.90;45.50
1021;DHT22;499;42.648;23.270;2023-04-03T03:12:48;5.90;43.90
1021;DHT22;499;42.648;23.270;2023-04-03T03:15:17;5.90;42.80
1021;DHT22;499;42.648;23.270;2023-04-03T03:17:45;6.00;43.60
1021;DHT22;499;42.648;23.270;2023-04-03T03:20:12;6.00;43.10
1021;DHT22;499;42.648;23.270;2023-04-03T03:22:40;5.90;43.60
1021;DHT22;499;42.648;23.270;2023-04-03T03:25:08;5.80;43.40
1021;DHT22;499;42.648;23.270;2023-04-03T03:27:36;5.80;44.70
1021;DHT22;499;42.648;23.270;2023-04-03T03:30:04;5.90;43.60
1021;DHT22;499;42.648;23.270;2023-04-03T03:32:32;5.90;42.80
1021;DHT22;499;42.648;23.270;2023-04-03T03:34:59;5.90;43.70
1021;DHT22;499;42.648;23.270;2023-04-03T03:37:26;5.80;43.90
1021;DHT22;499;42.648;23.270;2023-04-03T03:39:53;5.80;45.00
1021;DHT22;499;42.648;23.270;2023-04-03T03:42:20;5.70;45.40
1021;DHT22;499;42.648;23.270;2023-04-03T03:44:47;5.80;46.40
1021;DHT22;499;42.648;23.270;2023-04-03T03:47:14;5.80;46.90
1021;DHT22;499;42.648;23.270;2023-04-03T03:49:43;5.80;47.20
1021;DHT22;499;42.648;23.270;2023-04-03T03:52:10;5.80;47.30
1021;DHT22;499;42.648;23.270;2023-04-03T03:54:37;5.80;47.30
1021;DHT22;499;42.648;23.270;2023-04-03T03:57:04;5.80;47.20
1021;DHT22;499;42.648;23.270;2023-04-03T03:59:31;5.70;47.80
1021;DHT22;499;42.648;23.270;2023-04-03T04:01:58;5.50;50.00
1021;DHT22;499;42.648;23.270;2023-04-03T04:04:25;5.60;51.60
1021;DHT22;499;42.648;23.270;2023-04-03T04:06:54;5.60;51.60
1021;DHT22;499;42.648;23.270;2023-04-03T04:09:21;5.60;52.60
1021;DHT22;499;42.648;23.270;2023-04-03T04:11:48;5.50;51.50
1021;DHT22;499;42.648;23.270;2023-04-03T04:14:15;5.40;53.30
1021;DHT22;499;42.648;23.270;2023-04-03T04:16:42;5.60;52.80
1021;DHT22;499;42.648;23.270;2023-04-03T04:19:09;5.60;51.60
1021;DHT22;499;42.648;23.270;2023-04-03T04:21:36;5.80;51.70
1021;DHT22;499;42.648;23.270;2023-04-03T04:24:05;5.70;50.90
1021;DHT22;499;42.648;23.270;2023-04-03T04:26:32;5.60;51.60
1021;DHT22;499;42.648;23.270;2023-04-03T04:28:59;5.70;51.70
1021;DHT22;499;42.648;23.270;2023-04-03T04:31:26;5.80;50.40
1021;DHT22;499;42.648;23.270;2023-04-03T04:33:53;6.00;50.80
1021;DHT22;499;42.648;23.270;2023-04-03T04:36:20;6.00;49.60
1021;DHT22;499;42.648;23.270;2023-04-03T04:38:47;5.90;49.10
1021;DHT22;499;42.648;23.270;2023-04-03T04:41:19;5.90;49.80
1021;DHT22;499;42.648;23.270;2023-04-03T04:43:47;5.90;50.10
1021;DHT22;499;42.648;23.270;2023-04-03T04:46:15;6.10;50.10
1021;DHT22;499;42.648;23.270;2023-04-03T04:48:42;6.20;49.40
1021;DHT22;499;42.648;23.270;2023-04-03T04:51:09;6.20;47.60
1021;DHT22;499;42.648;23.270;2023-04-03T04:53:37;6.30;47.60
1021;DHT22;499;42.648;23.270;2023-04-03T04:56:04;6.40;47.80
1021;DHT22;499;42.648;23.270;2023-04-03T04:58:33;6.50;47.80
1021;DHT22;499;42.648;23.270;2023-04-03T05:01:00;6.60;46.80
1021;DHT22;499;42.648;23.270;2023-04-03T05:03:27;6.60;45.40
1021;DHT22;499;42.648;23.270;2023-04-03T05:05:54;6.60;45.80
1021;DHT22;499;42.648;23.270;2023-04-03T05:08:22;6.70;47.10
1021;DHT22;499;42.648;23.270;2023-04-03T05:10:49;6.90;45.60
1021;DHT22;499;42.648;23.270;2023-04-03T05:13:16;7.00;44.50
1021;DHT22;499;42.648;23.270;2023-04-03T05:15:45;7.00;45.90
1021;DHT22;499;42.648;23.270;2023-04-03T05:18:13;7.10;46.60
1021;DHT22;499;42.648;23.270;2023-04-03T05:20:40;7.20;44.60
1021;DHT22;499;42.648;23.270;2023-04-03T05:23:09;7.30;45.50
1021;DHT22;499;42.648;23.270;2023-04-03T05:25:37;7.60;43.80
1021;DHT22;499;42.648;23.270;2023-04-03T05:28:04;7.60;42.40
1021;DHT22;499;42.648;23.270;2023-04-03T05:30:32;7.80;42.60
1021;DHT22;499;42.648;23.270;2023-04-03T05:33:00;8.00;41.70
1021;DHT22;499;42.648;23.270;2023-04-03T05:35:27;8.10;41.10
1021;DHT22;499;42.648;23.270;2023-04-03T05:37:54;8.20;40.10
1021;DHT22;499;42.648;23.270;2023-04-03T05:40:21;8.30;40.10
1021;DHT22;499;42.648;23.270;2023-04-03T05:42:48;8.50;39.50
1021;DHT22;499;42.648;23.270;2023-04-03T05:45:16;8.60;36.00
1021;DHT22;499;42.648;23.270;2023-04-03T05:47:43;8.70;35.70
1021;DHT22;499;42.648;23.270;2023-04-03T05:50:11;8.70;35.70
1021;DHT22;499;42.648;23.270;2023-04-03T05:52:41;8.70;35.90
1021;DHT22;499;42.648;23.270;2023-04-03T05:55:09;8.60;36.20
1021;DHT22;499;42.648;23.270;2023-04-03T05:57:36;8.50;36.40
1021;DHT22;499;42.648;23.270;2023-04-03T06:00:04;8.60;37.20
1021;DHT22;499;42.648;23.270;2023-04-03T06:02:31;8.60;37.90
1021;DHT22;499;42.648;23.270;2023-04-03T06:04:58;8.80;37.60
1021;DHT22;499;42.648;23.270;2023-04-03T06:07:27;8.90;35.90
1021;DHT22;499;42.648;23.270;2023-04-03T06:09:55;8.90;34.80
1021;DHT22;499;42.648;23.270;2023-04-03T06:12:22;8.90;35.00
1021;DHT22;499;42.648;23.270;2023-04-03T06:14:50;8.90;35.80
1021;DHT22;499;42.648;23.270;2023-04-03T06:17:18;8.90;34.90
1021;DHT22;499;42.648;23.270;2023-04-03T06:19:46;8.80;34.90
1021;DHT22;499;42.648;23.270;2023-04-03T06:22:13;8.80;35.00
1021;DHT22;499;42.648;23.270;2023-04-03T06:24:42;8.80;35.10
1021;DHT22;499;42.648;23.270;2023-04-03T06:27:10;8.90;35.00
1021;DHT22;499;42.648;23.270;2023-04-03T06:29:37;9.00;34.30
1021;DHT22;499;42.648;23.270;2023-04-03T06:32:05;9.00;33.90
1021;DHT22;499;42.648;23.270;2023-04-03T06:34:32;9.10;33.50
1021;DHT22;499;42.648;23.270;2023-04-03T06:36:59;9.00;31.60
1021;DHT22;499;42.648;23.270;2023-04-03T06:39:26;9.20;32.70
1021;DHT22;499;42.648;23.270;2023-04-03T06:41:55;9.20;31.30
1021;DHT22;499;42.648;23.270;2023-04-03T06:44:22;9.30;31.40
1021;DHT22;499;42.648;23.270;2023-04-03T06:46:49;9.50;30.80
1021;DHT22;499;42.648;23.270;2023-04-03T06:49:17;9.50;31.10
1021;DHT22;499;42.648;23.270;2023-04-03T06:51:44;9.30;31.30
1021;DHT22;499;42.648;23.270;2023-04-03T06:54:11;9.20;31.20
1021;DHT22;499;42.648;23.270;2023-04-03T06:56:38;9.00;33.00
1021;DHT22;499;42.648;23.270;2023-04-03T06:59:06;8.90;33.30
1021;DHT22;499;42.648;23.270;2023-04-03T07:01:34;8.90;33.40
1021;DHT22;499;42.648;23.270;2023-04-03T07:04:01;8.80;33.50
1021;DHT22;499;42.648;23.270;2023-04-03T07:06:28;8.90;35.30
1021;DHT22;499;42.648;23.270;2023-04-03T07:08:56;9.00;33.90
1021;DHT22;499;42.648;23.270;2023-04-03T07:11:23;9.10;31.80
1021;DHT22;499;42.648;23.270;2023-04-03T07:13:50;9.00;31.70
1021;DHT22;499;42.648;23.270;2023-04-03T07:16:19;9.20;32.00
1021;DHT22;499;42.648;23.270;2023-04-03T07:18:46;9.40;31.90
1021;DHT22;499;42.648;23.270;2023-04-03T07:21:13;9.80;31.80
1021;DHT22;499;42.648;23.270;2023-04-03T07:23:40;10.00;29.20
1021;DHT22;499;42.648;23.270;2023-04-03T07:26:07;10.20;27.80
1021;DHT22;499;42.648;23.270;2023-04-03T07:28:35;10.20;27.60
1021;DHT22;499;42.648;23.270;2023-04-03T07:31:04;10.30;26.70
1021;DHT22;499;42.648;23.270;2023-04-03T07:33:35;10.00;27.90
1021;DHT22;499;42.648;23.270;2023-04-03T07:36:03;10.30;27.30
1021;DHT22;499;42.648;23.270;2023-04-03T07:38:33;10.50;27.40
1021;DHT22;499;42.648;23.270;2023-04-03T07:41:01;10.50;26.90
1021;DHT22;499;42.648;23.270;2023-04-03T07:43:28;10.40;27.30
1021;DHT22;499;42.648;23.270;2023-04-03T07:45:55;10.20;27.20
1021;DHT22;499;42.648;23.270;2023-04-03T07:48:23;10.40;27.00
1021;DHT22;499;42.648;23.270;2023-04-03T07:50:52;10.40;26.40
1021;DHT22;499;42.648;23.270;2023-04-03T07:53:19;10.40;26.40
1021;DHT22;499;42.648;23.270;2023-04-03T07:55:47;10.50;26.20
1021;DHT22;499;42.648;23.270;2023-04-03T07:58:16;10.50;26.40
1021;DHT22;499;42.648;23.270;2023-04-03T08:00:44;10.60;26.40
1021;DHT22;499;42.648;23.270;2023-04-03T08:03:11;10.90;26.30
1021;DHT22;499;42.648;23.270;2023-04-03T08:05:40;10.80;25.50
1021;DHT22;499;42.648;23.270;2023-04-03T08:08:09;10.50;26.00
1021;DHT22;499;42.648;23.270;2023-04-03T08:10:36;10.50;26.70
1021;DHT22;499;42.648;23.270;2023-04-03T08:13:06;10.40;26.30
1021;DHT22;499;42.648;23.270;2023-04-03T08:15:33;10.40;27.00
1021;DHT22;499;42.648;23.270;2023-04-03T08:18:00;10.50;27.50
1021;DHT22;499;42.648;23.270;2023-04-03T08:20:28;10.70;27.60
1021;DHT22;499;42.648;23.270;2023-04-03T08:22:55;11.00;26.40
1021;DHT22;499;42.648;23.270;2023-04-03T08:25:23;11.10;25.10
1021;DHT22;499;42.648;23.270;2023-04-03T08:27:50;11.20;25.00
1021;DHT22;499;42.648;23.270;2023-04-03T08:30:17;11.10;24.80
1021;DHT22;499;42.648;23.270;2023-04-03T08:32:44;11.00;25.20
1021;DHT22;499;42.648;23.270;2023-04-03T08:35:12;11.00;26.10
1021;DHT22;499;42.648;23.270;2023-04-03T08:37:39;10.90;26.00
1021;DHT22;499;42.648;23.270;2023-04-03T08:40:12;11.00;25.50
1021;DHT22;499;42.648;23.270;2023-04-03T08:42:48;11.00;25.50
1021;DHT22;499;42.648;23.270;2023-04-03T08:45:22;11.10;25.40
1021;DHT22;499;42.648;23.270;2023-04-03T08:47:57;11.30;25.50
1021;DHT22;499;42.648;23.270;2023-04-03T08:50:30;11.20;24.60
1021;DHT22;499;42.648;23.270;2023-04-03T08:52:59;11.20;24.10
1021;DHT22;499;42.648;23.270;2023-04-03T08:55:30;11.20;25.00
1021;DHT22;499;42.648;23.270;2023-04-03T08:58:02;11.20;24.80
1021;DHT22;499;42.648;23.270;2023-04-03T09:00:34;11.00;24.60
1021;DHT22;499;42.648;23.270;2023-04-03T09:03:04;11.00;25.30
1021;DHT22;499;42.648;23.270;2023-04-03T09:05:39;11.00;25.60
1021;DHT22;499;42.648;23.270;2023-04-03T09:08:18;11.20;25.30
1021;DHT22;499;42.648;23.270;2023-04-03T09:10:49;11.40;25.70
1021;DHT22;499;42.648;23.270;2023-04-03T09:13:26;11.30;25.00
1021;DHT22;499;42.648;23.270;2023-04-03T09:15:56;11.40;24.80
1021;DHT22;499;42.648;23.270;2023-04-03T09:18:28;11.40;25.20
1021;DHT22;499;42.648;23.270;2023-04-03T09:21:01;11.50;24.90
1021;DHT22;499;42.648;23.270;2023-04-03T09:23:44;11.60;24.90
1021;DHT22;499;42.648;23.270;2023-04-03T09:26:15;11.60;24.40
1021;DHT22;499;42.648;23.270;2023-04-03T09:28:45;11.60;24.20
1021;DHT22;499;42.648;23.270;2023-04-03T09:31:19;11.70;23.50
1021;DHT22;499;42.648;23.270;2023-04-03T09:33:48;11.80;24.20
1021;DHT22;499;42.648;23.270;2023-04-03T09:36:42;11.90;22.70
1021;DHT22;499;42.648;23.270;2023-04-03T09:39:13;12.00;21.70
1021;DHT22;499;42.648;23.270;2023-04-03T09:41:42;12.30;21.00
1021;DHT22;499;42.648;23.270;2023-04-03T09:44:24;12.60;19.60
1021;DHT22;499;42.648;23.270;2023-04-03T09:46:51;12.70;17.90
1021;DHT22;499;42.648;23.270;2023-04-03T09:49:19;12.80;17.60
1021;DHT22;499;42.648;23.270;2023-04-03T09:51:46;12.80;18.20
1021;DHT22;499;42.648;23.270;2023-04-03T09:54:32;13.00;18.20
1021;DHT22;499;42.648;23.270;2023-04-03T09:57:06;13.10;16.80
1021;DHT22;499;42.648;23.270;2023-04-03T09:59:35;13.10;17.50
1021;DHT22;499;42.648;23.270;2023-04-03T10:02:11;13.20;17.70
1021;DHT22;499;42.648;23.270;2023-04-03T10:04:46;13.20;17.30
1021;DHT22;499;42.648;23.270;2023-04-03T10:07:35;13.20;17.30
1021;DHT22;499;42.648;23.270;2023-04-03T10:10:16;13.20;16.40
1021;DHT22;499;42.648;23.270;2023-04-03T10:12:43;13.30;16.30
1021;DHT22;499;42.648;23.270;2023-04-03T10:15:14;13.30;16.90
1021;DHT22;499;42.648;23.270;2023-04-03T10:17:51;13.20;16.20
1021;DHT22;499;42.648;23.270;2023-04-03T10:20:27;12.90;16.70
1021;DHT22;499;42.648;23.270;2023-04-03T10:23:05;12.90;17.50
1021;DHT22;499;42.648;23.270;2023-04-03T10:25:42;12.90;17.60
1021;DHT22;499;42.648;23.270;2023-04-03T10:28:14;12.70;17.30
1021;DHT22;499;42.648;23.270;2023-04-03T10:30:50;12.70;17.70
1021;DHT22;499;42.648;23.270;2023-04-03T10:33:29;12.50;17.40
1021;DHT22;499;42.648;23.270;2023-04-03T10:36:07;12.50;18.80
1021;DHT22;499;42.648;23.270;2023-04-03T10:38:44;12.60;18.10
1021;DHT22;499;42.648;23.270;2023-04-03T10:41:20;12.60;18.20
1021;DHT22;499;42.648;23.270;2023-04-03T10:43:56;12.60;18.20
1021;DHT22;499;42.648;23.270;2023-04-03T10:46:31;12.80;17.90
1021;DHT22;499;42.648;23.270;2023-04-03T10:49:14;12.70;17.90
1021;DHT22;499;42.648;23.270;2023-04-03T10:51:45;12.70;18.60
1021;DHT22;499;42.648;23.270;2023-04-03T10:54:18;12.50;18.40
1021;DHT22;499;42.648;23.270;2023-04-03T10:56:48;12.40;18.80
1021;DHT22;499;42.648;23.270;2023-04-03T10:59:23;12.30;19.40
1021;DHT22;499;42.648;23.270;2023-04-03T11:01:56;12.30;19.60
1021;DHT22;499;42.648;23.270;2023-04-03T11:04:25;12.20;20.90
1021;DHT22;499;42.648;23.270;2023-04-03T11:07:01;12.20;21.30
1021;DHT22;499;42.648;23.270;2023-04-03T11:09:30;12.20;22.80
1021;DHT22;499;42.648;23.270;2023-04-03T11:12:05;12.20;22.50
1021;DHT22;499;42.648;23.270;2023-04-03T11:14:35;12.10;24.00
1021;DHT22;499;42.648;23.270;2023-04-03T11:17:15;12.00;25.00
1021;DHT22;499;42.648;23.270;2023-04-03T11:19:49;11.90;25.20
1021;DHT22;499;42.648;23.270;2023-04-03T11:22:23;11.60;28.10
1021;DHT22;499;42.648;23.270;2023-04-03T11:24:59;11.40;29.10
1021;DHT22;499;42.648;23.270;2023-04-03T11:27:33;11.30;33.00
1021;DHT22;499;42.648;23.270;2023-04-03T11:30:06;11.10;35.00
1021;DHT22;499;42.648;23.270;2023-04-03T11:35:29;10.60;45.70
1021;DHT22;499;42.648;23.270;2023-04-03T11:37:57;10.50;49.80
1021;DHT22;499;42.648;23.270;2023-04-03T11:40:28;10.60;49.50
1021;DHT22;499;42.648;23.270;2023-04-03T11:43:06;10.60;46.50
1021;DHT22;499;42.648;23.270;2023-04-03T11:45:36;10.50;52.20
1021;DHT22;499;42.648;23.270;2023-04-03T11:48:09;10.30;55.60
1021;DHT22;499;42.648;23.270;2023-04-03T11:50:54;10.10;58.30
1021;DHT22;499;42.648;23.270;2023-04-03T11:53:33;10.10;65.10
1021;DHT22;499;42.648;23.270;2023-04-03T11:56:03;10.00;66.60
1021;DHT22;499;42.648;23.270;2023-04-03T11:58:32;9.90;64.70
1021;DHT22;499;42.648;23.270;2023-04-03T12:01:05;9.90;67.90
1021;DHT22;499;42.648;23.270;2023-04-03T12:06:59;9.80;73.50
1021;DHT22;499;42.648;23.270;2023-04-03T12:09:33;9.60;71.60
1021;DHT22;499;42.648;23.270;2023-04-03T12:12:24;9.40;76.60
1021;DHT22;499;42.648;23.270;2023-04-03T12:14:52;9.30;82.80
1021;DHT22;499;42.648;23.270;2023-04-03T12:17:23;9.20;85.80
1021;DHT22;499;42.648;23.270;2023-04-03T12:19:51;9.20;89.70
1021;DHT22;499;42.648;23.270;2023-04-03T12:22:21;9.10;88.70
1021;DHT22;499;42.648;23.270;2023-04-03T12:24:50;8.90;85.90
1021;DHT22;499;42.648;23.270;2023-04-03T12:27:41;8.90;89.40
1021;DHT22;499;42.648;23.270;2023-04-03T12:30:22;8.80;89.40
1021;DHT22;499;42.648;23.270;2023-04-03T12:33:10;8.70;88.20
1021;DHT22;499;42.648;23.270;2023-04-03T12:35:46;8.60;92.00
1021;DHT22;499;42.648;23.270;2023-04-03T12:38:47;8.60;93.70
1021;DHT22;499;42.648;23.270;2023-04-03T12:41:30;8.60;95.70
1021;DHT22;499;42.648;23.270;2023-04-03T12:44:17;8.50;95.20
1021;DHT22;499;42.648;23.270;2023-04-03T12:46:48;8.50;92.50
1021;DHT22;499;42.648;23.270;2023-04-03T12:49:30;8.40;86.60
1021;DHT22;499;42.648;23.270;2023-04-03T12:52:00;8.40;78.00
1021;DHT22;499;42.648;23.270;2023-04-03T12:54:33;8.40;83.40
1021;DHT22;499;42.648;23.270;2023-04-03T12:57:12;8.50;77.40
1021;DHT22;499;42.648;23.270;2023-04-03T12:59:39;8.40;82.00
1021;DHT22;499;42.648;23.270;2023-04-03T13:02:20;8.30;77.30
1021;DHT22;499;42.648;23.270;2023-04-03T13:04:49;8.30;78.00
1021;DHT22;499;42.648;23.270;2023-04-03T13:07:25;8.30;81.70
1021;DHT22;499;42.648;23.270;2023-04-03T13:10:09;8.30;86.50
1021;DHT22;499;42.648;23.270;2023-04-03T13:12:46;8.20;90.40
1021;DHT22;499;42.648;23.270;2023-04-03T13:15:16;8.10;94.40
1021;DHT22;499;42.648;23.270;2023-04-03T13:17:44;8.00;98.20
1021;DHT22;499;42.648;23.270;2023-04-03T13:20:17;7.90;99.90
1021;DHT22;499;42.648;23.270;2023-04-03T13:22:49;7.90;99.90
1021;DHT22;499;42.648;23.270;2023-04-03T13:25:21;7.80;99.90
1021;DHT22;499;42.648;23.270;2023-04-03T13:27:50;7.70;99.90
1021;DHT22;499;42.648;23.270;2023-04-03T13:30:25;7.80;99.90
1021;DHT22;499;42.648;23.270;2023-04-03T13:32:54;7.70;99.90
1021;DHT22;499;42.648;23.270;2023-04-03T13:35:31;7.60;99.90
1021;DHT22;499;42.648;23.270;2023-04-03T13:38:02;7.60;99.90
1021;DHT22;499;42.648;23.270;2023-04-03T13:40:31;7.60;99.90
1021;DHT22;499;42.648;23.270;2023-04-03T13:43:00;7.60;99.90
1021;DHT22;499;42.648;23.270;2023-04-03T13:45:28;7.60;98.50
1021;DHT22;499;42.648;23.270;2023-04-03T13:48:09;7.60;97.20
1021;DHT22;499;42.648;23.270;2023-04-03T13:50:56;7.50;92.10
1021;DHT22;499;42.648;23.270;2023-04-03T13:53:24;7.50;92.70
1021;DHT22;499;42.648;23.270;2023-04-03T13:56:00;7.40;92.90
1021;DHT22;499;42.648;23.270;2023-04-03T13:58:32;7.40;92.60
1021;DHT22;499;42.648;23.270;2023-04-03T14:01:06;7.40;92.80
1021;DHT22;499;42.648;23.270;2023-04-03T14:03:40;7.40;93.20
1021;DHT22;499;42.648;23.270;2023-04-03T14:06:10;7.40;91.80
1021;DHT22;499;42.648;23.270;2023-04-03T14:08:37;7.40;94.00
1021;DHT22;499;42.648;23.270;2023-04-03T14:11:08;7.40;94.10
1021;DHT22;499;42.648;23.270;2023-04-03T14:13:35;7.40;94.40
1021;DHT22;499;42.648;23.270;2023-04-03T14:16:03;7.40;94.50
1021;DHT22;499;42.648;23.270;2023-04-03T14:18:30;7.40;94.70
1021;DHT22;499;42.648;23.270;2023-04-03T14:20:57;7.30;94.00
1021;DHT22;499;42.648;23.270;2023-04-03T14:23:24;7.40;93.90
1021;DHT22;499;42.648;23.270;2023-04-03T14:25:51;7.30;94.30
1021;DHT22;499;42.648;23.270;2023-04-03T14:28:21;7.30;95.20
1021;DHT22;499;42.648;23.270;2023-04-03T14:30:49;7.30;96.30
1021;DHT22;499;42.648;23.270;2023-04-03T14:33:19;7.20;97.90
1021;DHT22;499;42.648;23.270;2023-04-03T14:35:47;7.20;99.10
1021;DHT22;499;42.648;23.270;2023-04-03T14:38:23;7.20;99.60
1021;DHT22;499;42.648;23.270;2023-04-03T14:40:51;7.30;98.90
1021;DHT22;499;42.648;23.270;2023-04-03T14:43:19;7.30;97.90
1021;DHT22;499;42.648;23.270;2023-04-03T14:45:48;7.30;96.20
1021;DHT22;499;42.648;23.270;2023-04-03T14:48:19;7.20;97.90
1021;DHT22;499;42.648;23.270;2023-04-03T14:50:48;7.20;94.80
1021;DHT22;499;42.648;23.270;2023-04-03T14:53:15;7.10;97.20
1021;DHT22;499;42.648;23.270;2023-04-03T14:55:45;7.10;98.50
1021;DHT22;499;42.648;23.270;2023-04-03T14:58:13;7.20;98.70
1021;DHT22;499;42.648;23.270;2023-04-03T15:00:43;7.10;95.30
1021;DHT22;499;42.648;23.270;2023-04-03T15:03:14;7.20;95.00
1021;DHT22;499;42.648;23.270;2023-04-03T15:05:42;7.10;94.90
1021;DHT22;499;42.648;23.270;2023-04-03T15:08:18;7.10;95.90
1021;DHT22;499;42.648;23.270;2023-04-03T15:10:46;7.10;97.10
1021;DHT22;499;42.648;23.270;2023-04-03T15:13:14;7.10;97.90
1021;DHT22;499;42.648;23.270;2023-04-03T15:15:43;7.10;97.60
1021;DHT22;499;42.648;23.270;2023-04-03T15:18:22;7.00;96.30
1021;DHT22;499;42.648;23.270;2023-04-03T15:20:49;7.00;97.80
1021;DHT22;499;42.648;23.270;2023-04-03T15:23:17;7.00;98.10
1021;DHT22;499;42.648;23.270;2023-04-03T15:25:45;7.10;98.40
1021;DHT22;499;42.648;23.270;2023-04-03T15:28:18;7.10;98.50
1021;DHT22;499;42.648;23.270;2023-04-03T15:30:47;7.20;98.80
1021;DHT22;499;42.648;23.270;2023-04-03T15:33:14;7.20;98.70
1021;DHT22;499;42.648;23.270;2023-04-03T15:35:42;7.10;98.50
1021;DHT22;499;42.648;23.270;2023-04-03T15:38:09;7.10;99.40
1021;DHT22;499;42.648;23.270;2023-04-03T15:40:37;7.10;99.90
1021;DHT22;499;42.648;23.270;2023-04-03T15:43:05;7.10;99.90
1021;DHT22;499;42.648;23.270;2023-04-03T15:45:34;7.10;99.90
1021;DHT22;499;42.648;23.270;2023-04-03T15:48:04;7.10;99.90
1021;DHT22;499;42.648;23.270;2023-04-03T15:50:31;7.10;99.90
1021;DHT22;499;42.648;23.270;2023-04-03T15:52:59;7.10;99.90
1021;DHT22;499;42.648;23.270;2023-04-03T15:55:28;7.10;99.90
1021;DHT22;499;42.648;23.270;2023-04-03T15:57:55;7.10;99.90
1021;DHT22;499;42.648;23.270;2023-04-03T16:00:24;7.00;99.90
1021;DHT22;499;42.648;23.270;2023-04-03T16:02:53;7.00;99.90
1021;DHT22;499;42.648;23.270;2023-04-03T16:05:24;7.00;99.90
1021;DHT22;499;42.648;23.270;2023-04-03T16:07:51;7.00;99.90
1021;DHT22;499;42.648;23.270;2023-04-03T16:10:19;7.00;99.90
1021;DHT22;499;42.648;23.270;2023-04-03T16:12:46;6.80;99.90
1021;DHT22;499;42.648;23.270;2023-04-03T16:15:13;6.90;99.90
1021;DHT22;499;42.648;23.270;2023-04-03T16:17:41;6.70;99.90
1021;DHT22;499;42.648;23.270;2023-04-03T16:20:10;6.70;99.90
1021;DHT22;499;42.648;23.270;2023-04-03T16:22:40;6.70;99.90
1021;DHT22;499;42.648;23.270;2023-04-03T16:25:08;6.80;99.90
1021;DHT22;499;42.648;23.270;2023-04-03T16:27:36;6.70;99.90
1021;DHT22;499;42.648;23.270;2023-04-03T16:30:04;6.70;99.90
1021;DHT22;499;42.648;23.270;2023-04-03T16:32:32;6.70;99.90
1021;DHT22;499;42.648;23.270;2023-04-03T16:34:59;6.60;99.10
1021;DHT22;499;42.648;23.270;2023-04-03T16:37:26;6.60;98.90
1021;DHT22;499;42.648;23.270;2023-04-03T16:39:55;6.60;98.70